Time;durP1;ratioP1;P1;durP2;ratioP2;P2;SDS_P1;SDS_P2;PMS_P1;PMS_P2;Temp;Humidity;BMP_temperature;BMP_pressure;BME280_temperature;BME280_humidity;BME280_pressure;Samples;Min_cycle;Max_cycle;Signal;HPM_P1;HPM_P2
2023/01/16 00:01:49;;;;;;;2.63;0.57;;;28.00;99.90;;;;;;5068037;28;20225;-83
2023/01/16 00:04:20;;;;;;;2.25;0.70;;;28.00;99.90;;;;;;5073088;28;20339;-83
2023/01/16 00:06:51;;;;;;;1.95;0.60;;;28.20;99.90;;;;;;5080717;28;20592;-82
2023/01/16 00:09:23;;;;;;;1.98;0.50;;;28.10;99.90;;;;;;5077287;28;20305;-82
2023/01/16 00:11:55;;;;;;;2.58;0.70;;;28.10;99.90;;;;;;5075415;28;20225;-81
2023/01/16 00:14:26;;;;;;;2.63;0.60;;;28.20;99.90;;;;;;5073459;28;20830;-82
2023/01/16 00:16:59;;;;;;;3.25;0.60;;;28.00;99.90;;;;;;5074855;28;20241;-83
2023/01/16 00:19:30;;;;;;;2.17;0.60;;;28.00;99.90;;;;;;5069923;28;20230;-84
2023/01/16 00:22:01;;;;;;;1.38;0.60;;;28.10;99.90;;;;;;5067064;28;20223;-85
2023/01/16 00:24:34;;;;;;;1.60;0.70;;;28.10;99.90;;;;;;5074109;28;20238;-81
2023/01/16 00:27:05;;;;;;;3.30;0.80;;;28.10;99.90;;;;;;5069221;28;20192;-82
2023/01/16 00:29:36;;;;;;;3.45;0.85;;;28.20;99.90;;;;;;5071374;28;20204;-84
2023/01/16 00:32:10;;;;;;;4.72;0.98;;;28.20;99.90;;;;;;5075745;28;20241;-85
2023/01/16 00:34:41;;;;;;;2.60;0.77;;;28.20;99.90;;;;;;5072819;28;20219;-84
2023/01/16 00:37:20;;;;;;;3.70;0.90;;;28.20;99.90;;;;;;5073561;28;20211;-84
2023/01/16 00:39:51;;;;;;;3.08;0.82;;;28.20;99.90;;;;;;5074239;28;20668;-86
2023/01/16 00:42:24;;;;;;;2.30;0.65;;;28.20;99.90;;;;;;5075332;28;20729;-85
2023/01/16 00:44:55;;;;;;;3.28;0.60;;;28.10;99.90;;;;;;5070523;28;20200;-86
2023/01/16 00:47:27;;;;;;;2.50;0.70;;;28.00;99.90;;;;;;5076870;28;20192;-85
2023/01/16 00:50:00;;;;;;;5.22;0.75;;;27.90;99.90;;;;;;5075992;28;20654;-84
2023/01/16 00:52:32;;;;;;;3.38;0.57;;;28.00;99.90;;;;;;5061710;28;20231;-85
2023/01/16 00:55:03;;;;;;;2.72;0.60;;;27.90;99.90;;;;;;5083738;28;20234;-88
2023/01/16 00:57:34;;;;;;;3.30;0.70;;;27.80;99.90;;;;;;5073816;28;20278;-85
2023/01/16 01:00:05;;;;;;;1.73;0.50;;;27.80;99.90;;;;;;5069277;28;20592;-85
2023/01/16 01:02:42;;;;;;;1.63;0.57;;;27.90;99.90;;;;;;5071713;28;20204;-80
2023/01/16 01:05:13;;;;;;;5.10;1.00;;;28.00;99.90;;;;;;5070288;28;20387;-87
2023/01/16 01:07:44;;;;;;;4.25;1.00;;;28.00;99.90;;;;;;5084923;28;20263;-86
2023/01/16 01:10:15;;;;;;;3.03;0.70;;;28.00;99.90;;;;;;5089016;28;20435;-87
2023/01/16 01:12:46;;;;;;;2.80;0.85;;;28.10;99.90;;;;;;5072661;28;20299;-85
2023/01/16 01:15:17;;;;;;;4.68;0.73;;;28.30;99.90;;;;;;5068783;28;20322;-84
2023/01/16 01:17:49;;;;;;;3.50;0.77;;;28.30;99.90;;;;;;5068782;28;20223;-85
2023/01/16 01:20:21;;;;;;;2.03;0.60;;;28.20;99.90;;;;;;5068190;28;20218;-86
2023/01/16 01:22:54;;;;;;;4.85;0.80;;;28.30;99.90;;;;;;5071404;28;20230;-85
2023/01/16 01:25:25;;;;;;;2.70;0.80;;;28.30;99.90;;;;;;5069584;28;20208;-87
2023/01/16 01:27:56;;;;;;;2.67;0.82;;;28.40;99.90;;;;;;5070957;28;20199;-85
2023/01/16 01:30:27;;;;;;;2.05;0.60;;;28.30;99.90;;;;;;5079583;28;20639;-85
2023/01/16 01:33:00;;;;;;;4.55;0.90;;;28.40;99.90;;;;;;5072521;28;20602;-84
2023/01/16 01:35:31;;;;;;;2.38;0.57;;;28.30;99.90;;;;;;5072112;28;20202;-84
2023/01/16 01:38:03;;;;;;;3.35;0.88;;;28.30;99.90;;;;;;5072224;28;20192;-84
2023/01/16 01:40:35;;;;;;;1.77;0.50;;;28.20;99.90;;;;;;5070213;28;20220;-85
2023/01/16 01:43:11;;;;;;;2.90;0.60;;;28.40;99.90;;;;;;5073291;28;20199;-86
2023/01/16 01:45:44;;;;;;;6.15;0.68;;;28.50;99.90;;;;;;5068550;28;20227;-87
2023/01/16 01:48:26;;;;;;;2.33;0.70;;;28.70;99.90;;;;;;5071283;28;20188;-86
2023/01/16 01:51:02;;;;;;;3.50;0.60;;;28.80;99.90;;;;;;5069672;28;20287;-85
2023/01/16 01:53:38;;;;;;;4.05;0.88;;;28.70;99.90;;;;;;5073464;28;20730;-85
2023/01/16 01:56:16;;;;;;;1.80;0.57;;;28.60;99.90;;;;;;5074426;28;20191;-85
2023/01/16 01:58:51;;;;;;;2.70;0.68;;;28.70;99.90;;;;;;5077904;28;20187;-84
2023/01/16 02:01:24;;;;;;;1.33;0.50;;;28.70;99.90;;;;;;5071278;28;20207;-85
2023/01/16 02:04:03;;;;;;;1.30;0.52;;;28.80;99.90;;;;;;5073368;28;20249;-85
2023/01/16 02:06:41;;;;;;;3.45;0.70;;;28.70;99.90;;;;;;5070396;28;20219;-84
2023/01/16 02:09:13;;;;;;;2.65;0.52;;;28.60;99.90;;;;;;5080601;28;20313;-84
2023/01/16 02:11:48;;;;;;;1.33;0.52;;;28.50;99.90;;;;;;5072099;28;20602;-84
2023/01/16 02:14:20;;;;;;;2.83;0.70;;;28.40;99.90;;;;;;5069929;28;20268;-83
2023/01/16 02:19:53;;;;;;;0.90;0.40;;;28.40;99.90;;;;;;5066969;28;20794;-83
2023/01/16 02:23:13;;;;;;;5.13;0.70;;;28.40;99.90;;;;;;5065147;28;20192;-81
2023/01/16 02:26:23;;;;;;;3.25;0.60;;;28.30;99.90;;;;;;5058891;28;20200;-81
2023/01/16 02:29:40;;;;;;;1.98;0.77;;;28.30;99.90;;;;;;5066193;28;20216;-81
2023/01/16 02:32:28;;;;;;;4.47;0.80;;;28.30;99.90;;;;;;5041968;28;20603;-81
2023/01/16 02:35:16;;;;;;;5.35;0.95;;;28.30;99.90;;;;;;5076861;28;20287;-81
2023/01/16 02:37:52;;;;;;;2.90;0.90;;;28.30;99.90;;;;;;5064758;28;20358;-82
2023/01/16 02:40:38;;;;;;;2.38;0.60;;;28.30;99.90;;;;;;5067955;28;20270;-82
2023/01/16 02:43:21;;;;;;;2.03;0.73;;;28.40;99.90;;;;;;5062739;28;20617;-83
2023/01/16 02:45:56;;;;;;;2.65;0.70;;;28.40;99.90;;;;;;5064549;28;20220;-84
2023/01/16 02:48:37;;;;;;;2.67;0.60;;;28.60;99.90;;;;;;5067405;28;20222;-82
2023/01/16 02:51:15;;;;;;;0.93;0.43;;;28.60;99.90;;;;;;5062635;28;20254;-82
2023/01/16 02:53:52;;;;;;;2.08;0.55;;;28.80;99.90;;;;;;5062356;28;20199;-82
2023/01/16 02:56:29;;;;;;;2.03;0.40;;;28.80;99.90;;;;;;5065318;28;20195;-84
2023/01/16 02:59:01;;;;;;;2.63;0.68;;;28.90;99.90;;;;;;5069436;28;20194;-83
2023/01/16 03:01:35;;;;;;;2.33;0.80;;;28.90;99.90;;;;;;5060565;28;20307;-82
2023/01/16 03:04:38;;;;;;;3.38;0.98;;;29.00;99.90;;;;;;5060601;28;20197;-82
2023/01/16 03:07:32;;;;;;;2.17;0.47;;;28.90;99.90;;;;;;5063880;28;20273;-81
2023/01/16 03:10:19;;;;;;;2.28;0.30;;;28.90;99.90;;;;;;5062146;28;20238;-80
2023/01/16 03:12:59;;;;;;;2.55;0.75;;;29.10;99.90;;;;;;5078886;28;20547;-81
2023/01/16 03:15:37;;;;;;;4.45;0.77;;;29.20;99.90;;;;;;5064621;28;20239;-82
2023/01/16 03:18:19;;;;;;;4.18;0.82;;;29.30;99.90;;;;;;5066975;28;20203;-82
2023/01/16 03:20:57;;;;;;;4.38;0.80;;;29.30;99.90;;;;;;5048285;28;20192;-82
2023/01/16 03:23:37;;;;;;;2.83;0.73;;;29.10;99.90;;;;;;5067500;28;20211;-82
2023/01/16 03:26:16;;;;;;;2.47;0.70;;;28.90;99.90;;;;;;5067041;28;20218;-82
2023/01/16 03:28:57;;;;;;;2.25;0.60;;;28.70;99.90;;;;;;5064962;28;20757;-83
2023/01/16 03:31:36;;;;;;;3.70;0.95;;;28.60;99.90;;;;;;5068117;28;20288;-82
2023/01/16 03:34:20;;;;;;;3.65;0.80;;;28.50;99.90;;;;;;5068390;28;20203;-83
2023/01/16 03:36:56;;;;;;;4.88;0.73;;;28.50;99.90;;;;;;5062151;28;20360;-81
2023/01/16 03:39:32;;;;;;;2.63;0.70;;;28.60;99.90;;;;;;5067196;28;20219;-83
2023/01/16 03:42:08;;;;;;;2.88;0.77;;;28.70;99.90;;;;;;5068650;28;20777;-84
2023/01/16 03:44:43;;;;;;;3.83;0.80;;;28.80;99.90;;;;;;5068723;28;20203;-85
2023/01/16 03:47:18;;;;;;;3.45;0.90;;;28.70;99.90;;;;;;5067379;28;20201;-85
2023/01/16 03:49:53;;;;;;;3.63;0.70;;;28.70;99.90;;;;;;5067184;28;20986;-83
2023/01/16 03:52:29;;;;;;;2.53;0.70;;;28.60;99.90;;;;;;5066218;28;20211;-82
2023/01/16 03:55:14;;;;;;;2.20;0.68;;;28.50;99.90;;;;;;5068940;28;20197;-84
2023/01/16 03:57:49;;;;;;;4.18;0.70;;;28.50;99.90;;;;;;5065665;28;20223;-83
2023/01/16 04:00:21;;;;;;;2.55;0.60;;;28.60;99.90;;;;;;5070627;28;20322;-82
2023/01/16 04:03:00;;;;;;;2.20;0.63;;;28.70;99.90;;;;;;5067170;28;20211;-84
2023/01/16 04:05:34;;;;;;;2.35;0.70;;;29.00;99.90;;;;;;5065784;28;20204;-83
2023/01/16 04:08:11;;;;;;;2.92;0.70;;;29.20;99.90;;;;;;5064975;28;20579;-82
2023/01/16 04:10:48;;;;;;;3.58;1.00;;;29.10;99.90;;;;;;5074574;28;20242;-82
2023/01/16 04:13:23;;;;;;;5.18;0.80;;;29.10;99.90;;;;;;5077908;28;20263;-78
2023/01/16 04:15:58;;;;;;;3.60;0.80;;;29.00;99.90;;;;;;5068255;28;20546;-82
2023/01/16 04:18:33;;;;;;;1.83;0.60;;;29.00;99.90;;;;;;5071897;28;20199;-84
2023/01/16 04:21:06;;;;;;;5.88;1.05;;;29.00;99.90;;;;;;5067827;28;20203;-82
2023/01/16 04:23:37;;;;;;;2.47;0.70;;;28.90;99.90;;;;;;5068043;28;20223;-82
2023/01/16 04:26:12;;;;;;;2.72;0.70;;;28.70;99.90;;;;;;5066989;28;20188;-81
2023/01/16 04:28:43;;;;;;;3.05;0.60;;;28.70;99.90;;;;;;5065819;28;20226;-82
2023/01/16 04:31:14;;;;;;;3.05;0.82;;;28.70;99.90;;;;;;5070712;28;20204;-84
2023/01/16 04:33:45;;;;;;;2.90;0.80;;;28.80;99.90;;;;;;5068962;28;20250;-82
2023/01/16 04:36:18;;;;;;;2.35;0.80;;;28.80;99.90;;;;;;5063687;28;20239;-81
2023/01/16 04:38:49;;;;;;;5.32;0.90;;;28.80;99.90;;;;;;5067836;28;20208;-81
2023/01/16 04:44:05;;;;;;;2.38;0.75;;;28.80;99.90;;;;;;5071429;28;20204;-82
2023/01/16 04:46:38;;;;;;;3.22;0.90;;;28.80;99.90;;;;;;5072064;28;20208;-82
2023/01/16 04:49:09;;;;;;;2.60;0.80;;;28.90;99.90;;;;;;5070211;28;20635;-83
2023/01/16 04:51:40;;;;;;;2.45;0.70;;;28.80;99.90;;;;;;5071317;28;20200;-83
2023/01/16 04:54:16;;;;;;;1.42;0.80;;;28.80;99.90;;;;;;5081016;28;20657;-82
2023/01/16 04:56:49;;;;;;;3.28;0.75;;;28.80;99.90;;;;;;5071599;28;20271;-82
2023/01/16 04:59:23;;;;;;;4.63;0.73;;;29.10;99.90;;;;;;5078017;28;20676;-82
2023/01/16 05:01:54;;;;;;;4.53;0.90;;;29.10;99.90;;;;;;5076833;28;20287;-81
2023/01/16 05:04:25;;;;;;;3.08;0.60;;;29.20;99.90;;;;;;5066672;28;20231;-81
2023/01/16 05:06:56;;;;;;;4.50;0.80;;;29.20;99.90;;;;;;5071189;28;20285;-82
2023/01/16 05:09:27;;;;;;;2.90;0.80;;;29.30;99.90;;;;;;5076047;28;20192;-82
2023/01/16 05:12:00;;;;;;;4.35;0.98;;;29.40;99.90;;;;;;5072921;28;20192;-83
2023/01/16 05:14:31;;;;;;;3.60;0.73;;;29.50;99.90;;;;;;5076948;28;20196;-81
2023/01/16 05:17:02;;;;;;;2.50;0.60;;;29.60;99.90;;;;;;5090536;28;20231;-83
2023/01/16 05:19:34;;;;;;;2.38;0.90;;;29.70;99.90;;;;;;5082626;28;20201;-82
2023/01/16 05:22:05;;;;;;;3.08;0.77;;;29.80;99.90;;;;;;5077293;28;20195;-82
2023/01/16 05:24:40;;;;;;;3.65;0.82;;;30.00;99.90;;;;;;5070251;28;20218;-81
2023/01/16 05:27:13;;;;;;;3.70;0.70;;;30.10;99.90;;;;;;5072137;28;20227;-82
2023/01/16 05:29:47;;;;;;;2.63;0.82;;;30.00;99.90;;;;;;5070960;28;20202;-82
2023/01/16 05:32:18;;;;;;;2.35;0.70;;;30.10;99.90;;;;;;5073821;28;20239;-81
2023/01/16 05:34:49;;;;;;;4.25;0.90;;;30.10;99.90;;;;;;5073141;28;20327;-81
2023/01/16 05:37:20;;;;;;;2.63;0.85;;;30.20;99.90;;;;;;5072635;28;20196;-82
2023/01/16 05:39:51;;;;;;;2.30;0.70;;;30.10;99.90;;;;;;5067773;28;20203;-82
2023/01/16 05:42:24;;;;;;;3.65;0.77;;;30.20;99.90;;;;;;5076557;28;20220;-80
2023/01/16 05:44:56;;;;;;;4.28;0.98;;;30.00;99.90;;;;;;5072564;28;20659;-82
2023/01/16 05:47:26;;;;;;;2.30;0.80;;;30.20;99.90;;;;;;5066752;28;20204;-81
2023/01/16 05:49:58;;;;;;;2.40;0.82;;;30.30;99.90;;;;;;5066688;28;20203;-83
2023/01/16 05:52:29;;;;;;;3.00;0.70;;;30.50;99.90;;;;;;5067164;28;20610;-83
2023/01/16 05:55:00;;;;;;;2.90;0.70;;;30.60;99.90;;;;;;5077617;28;20204;-83
2023/01/16 05:57:33;;;;;;;2.22;0.80;;;30.70;99.90;;;;;;5067212;28;20254;-82
2023/01/16 06:00:07;;;;;;;3.60;0.90;;;30.90;99.90;;;;;;5066003;28;20627;-82
2023/01/16 06:02:38;;;;;;;3.58;0.90;;;31.10;99.90;;;;;;5066593;28;20671;-83
2023/01/16 06:05:11;;;;;;;2.30;0.52;;;31.20;99.90;;;;;;5075749;28;20198;-82
2023/01/16 06:07:42;;;;;;;3.05;0.88;;;31.50;99.90;;;;;;5069696;28;20204;-82
2023/01/16 06:10:15;;;;;;;3.60;0.80;;;31.60;99.90;;;;;;5068398;28;20241;-81
2023/01/16 06:12:48;;;;;;;5.95;0.80;;;31.90;99.90;;;;;;5070121;28;20223;-83
2023/01/16 06:15:21;;;;;;;2.40;0.70;;;31.90;99.90;;;;;;5082364;28;20238;-85
2023/01/16 06:17:53;;;;;;;3.53;0.80;;;32.10;99.90;;;;;;5083305;28;20199;-84
2023/01/16 06:20:25;;;;;;;2.22;0.77;;;32.30;99.90;;;;;;5076576;28;20288;-84
2023/01/16 06:22:56;;;;;;;3.10;1.02;;;32.50;99.90;;;;;;5068706;28;20218;-85
2023/01/16 06:25:27;;;;;;;3.30;0.90;;;32.50;99.90;;;;;;5071408;28;20195;-85
2023/01/16 06:28:00;;;;;;;3.20;1.00;;;32.60;99.90;;;;;;5069518;28;20257;-86
2023/01/16 06:30:31;;;;;;;2.40;0.75;;;32.70;99.90;;;;;;5071407;28;20291;-86
2023/01/16 06:33:02;;;;;;;4.43;0.88;;;32.70;99.90;;;;;;5073361;28;20204;-85
2023/01/16 06:35:33;;;;;;;5.47;1.17;;;32.90;99.90;;;;;;5075402;28;20224;-85
2023/01/16 06:38:04;;;;;;;5.30;1.02;;;32.80;99.90;;;;;;5071672;28;20199;-86
2023/01/16 06:40:35;;;;;;;7.53;1.23;;;32.90;99.90;;;;;;5071302;28;20215;-85
2023/01/16 06:43:09;;;;;;;3.15;0.82;;;33.00;99.90;;;;;;5068502;28;20410;-86
2023/01/16 06:45:40;;;;;;;3.75;0.70;;;33.10;99.90;;;;;;5063930;28;20224;-85
2023/01/16 06:48:11;;;;;;;3.60;0.80;;;33.20;99.90;;;;;;5070730;28;20222;-86
2023/01/16 06:50:42;;;;;;;3.47;0.93;;;33.40;99.90;;;;;;5064521;28;20220;-84
2023/01/16 06:53:13;;;;;;;4.43;1.00;;;33.40;99.90;;;;;;5065571;28;20310;-87
2023/01/16 06:55:44;;;;;;;2.10;0.75;;;33.80;99.90;;;;;;5063565;28;20219;-83
2023/01/16 06:58:17;;;;;;;1.60;0.70;;;34.00;99.90;;;;;;5075460;28;20211;-84
2023/01/16 07:00:50;;;;;;;4.00;0.60;;;34.20;99.90;;;;;;5063316;28;20380;-83
2023/01/16 07:03:22;;;;;;;2.10;0.60;;;34.60;98.70;;;;;;5068414;28;20389;-83
2023/01/16 07:05:52;;;;;;;2.78;0.80;;;35.00;96.00;;;;;;5063516;28;20227;-85
2023/01/16 07:08:24;;;;;;;2.50;0.70;;;35.00;95.10;;;;;;5070401;28;20777;-85
2023/01/16 07:10:55;;;;;;;2.80;1.05;;;35.40;94.10;;;;;;5070117;28;20204;-85
2023/01/16 07:13:29;;;;;;;4.07;1.10;;;35.70;92.00;;;;;;5069026;28;20217;-85
2023/01/16 07:24:29;;;;;;;2.15;0.70;;;35.60;87.60;;;;;;5074751;28;20695;-85
2023/01/16 07:27:02;;;;;;;3.50;0.80;;;35.50;86.80;;;;;;5067005;28;20210;-85
2023/01/16 07:29:38;;;;;;;1.38;0.60;;;35.50;85.80;;;;;;5065583;28;20215;-85
2023/01/16 07:32:10;;;;;;;2.63;0.68;;;35.70;84.90;;;;;;5075276;28;20259;-85
2023/01/16 07:34:41;;;;;;;3.47;0.90;;;35.40;86.40;;;;;;5071796;28;20234;-84
2023/01/16 07:37:12;;;;;;;1.48;0.88;;;35.40;86.20;;;;;;5071723;28;20212;-84
2023/01/16 07:39:44;;;;;;;2.72;0.95;;;35.70;83.80;;;;;;5072370;28;20241;-84
2023/01/16 07:42:18;;;;;;;2.13;0.90;;;35.60;84.10;;;;;;5072104;28;20196;-85
2023/01/16 07:44:56;;;;;;;3.15;1.02;;;35.50;84.50;;;;;;5073167;28;20310;-86
2023/01/16 07:47:27;;;;;;;2.17;1.02;;;35.60;82.60;;;;;;5071597;28;20200;-85
2023/01/16 07:50:02;;;;;;;2.88;0.80;;;35.60;82.40;;;;;;5081029;28;20246;-86
2023/01/16 07:52:33;;;;;;;3.25;1.05;;;35.80;81.20;;;;;;5067537;28;20330;-84
2023/01/16 07:55:06;;;;;;;1.90;0.73;;;35.40;82.00;;;;;;5073454;28;20284;-85
2023/01/16 07:57:39;;;;;;;3.92;0.98;;;35.30;82.70;;;;;;5068677;28;20211;-84
2023/01/16 08:00:14;;;;;;;2.33;0.60;;;35.00;83.20;;;;;;5079397;28;20193;-85
2023/01/16 08:02:46;;;;;;;2.28;0.80;;;34.80;83.80;;;;;;5081255;28;20196;-85
2023/01/16 08:05:17;;;;;;;3.05;0.70;;;34.40;84.60;;;;;;5083659;28;20547;-85
2023/01/16 08:07:49;;;;;;;2.38;0.60;;;34.30;86.00;;;;;;5076377;28;20223;-84
2023/01/16 08:10:21;;;;;;;1.60;0.70;;;34.20;86.10;;;;;;5082592;28;20200;-85
2023/01/16 08:12:52;;;;;;;3.90;0.90;;;33.80;88.00;;;;;;5081936;28;20226;-85
2023/01/16 08:15:26;;;;;;;2.95;0.95;;;33.20;90.70;;;;;;5077842;28;20230;-85
2023/01/16 08:17:57;;;;;;;3.70;0.98;;;32.70;92.10;;;;;;5045422;28;20278;-86
2023/01/16 08:20:28;;;;;;;3.65;0.93;;;32.10;94.00;;;;;;5077889;28;20199;-85
2023/01/16 08:23:00;;;;;;;3.65;0.93;;;31.50;96.80;;;;;;5073100;28;20250;-85
2023/01/16 08:25:32;;;;;;;3.13;0.75;;;31.00;99.80;;;;;;5065126;28;20235;-86
2023/01/16 08:28:03;;;;;;;2.47;0.90;;;30.40;99.90;;;;;;5069607;28;20283;-85
2023/01/16 08:30:36;;;;;;;2.03;0.70;;;30.10;99.90;;;;;;5072180;28;20200;-84
2023/01/16 08:33:07;;;;;;;3.80;0.85;;;29.90;99.90;;;;;;5070016;28;20641;-84
2023/01/16 08:35:38;;;;;;;2.92;0.85;;;29.60;99.90;;;;;;5070121;28;20729;-86
2023/01/16 08:38:09;;;;;;;1.65;0.60;;;29.30;99.90;;;;;;5073416;28;20191;-85
2023/01/16 08:40:40;;;;;;;4.28;0.98;;;29.00;99.90;;;;;;5064206;28;20200;-86
2023/01/16 08:51:47;;;;;;;2.88;0.90;;;28.20;99.90;;;;;;5007829;28;20218;-85
2023/01/16 08:54:18;;;;;;;2.78;0.70;;;28.00;99.90;;;;;;5056105;28;20724;-85
2023/01/16 08:56:49;;;;;;;2.65;0.80;;;27.90;99.90;;;;;;5066657;28;20199;-87
2023/01/16 08:59:20;;;;;;;2.42;0.80;;;27.80;99.90;;;;;;5066752;28;20219;-85
2023/01/16 09:01:54;;;;;;;3.15;0.75;;;27.60;99.90;;;;;;5068786;28;20875;-87
2023/01/16 09:04:25;;;;;;;2.88;0.85;;;27.50;99.90;;;;;;5062395;28;20339;-88
2023/01/16 09:06:56;;;;;;;2.30;0.77;;;27.50;99.90;;;;;;5070722;28;20200;-87
2023/01/16 09:09:29;;;;;;;3.90;0.80;;;27.40;99.90;;;;;;5078375;28;20195;-87
2023/01/16 09:14:47;;;;;;;3.90;0.80;;;27.40;99.90;;;;;;5086453;28;20340;-87
2023/01/16 09:17:20;;;;;;;2.83;0.70;;;27.20;99.90;;;;;;5085821;28;20208;-88
2023/01/16 09:19:52;;;;;;;1.55;0.63;;;27.10;99.90;;;;;;5074443;28;20187;-86
2023/01/16 09:27:51;;;;;;;4.78;0.75;;;27.00;99.90;;;;;;5077431;28;20180;-86
2023/01/16 09:30:22;;;;;;;3.33;0.95;;;27.00;99.90;;;;;;5085589;28;20649;-88
2023/01/16 09:32:56;;;;;;;2.53;0.70;;;26.90;99.90;;;;;;5083461;28;20200;-89
2023/01/16 09:35:28;;;;;;;5.78;0.82;;;26.80;99.90;;;;;;5082619;28;20258;-89
2023/01/16 09:38:02;;;;;;;2.22;0.60;;;26.90;99.90;;;;;;5082561;28;20650;-90
2023/01/16 09:40:34;;;;;;;3.15;0.82;;;26.80;99.90;;;;;;5077400;28;20275;-88
2023/01/16 09:46:07;;;;;;;4.78;1.00;;;26.70;99.90;;;;;;5078288;28;20227;-87
2023/01/16 09:48:49;;;;;;;2.35;0.80;;;26.70;99.90;;;;;;5078682;28;20323;-86
2023/01/16 09:51:24;;;;;;;2.78;0.90;;;26.60;99.90;;;;;;5073600;28;20287;-87
2023/01/16 09:59:42;;;;;;;2.92;0.82;;;26.50;99.90;;;;;;5081443;28;20198;-87
2023/01/16 10:02:23;;;;;;;3.13;0.70;;;26.50;99.90;;;;;;5074618;28;20222;-87
2023/01/16 10:04:58;;;;;;;3.08;0.77;;;26.40;99.90;;;;;;5075554;28;20275;-87
2023/01/16 10:07:53;;;;;;;3.40;0.75;;;26.40;99.90;;;;;;5076777;28;20285;-87
2023/01/16 10:10:38;;;;;;;4.03;0.88;;;26.40;99.90;;;;;;5058760;28;20218;-88
2023/01/16 10:13:21;;;;;;;3.95;1.05;;;26.40;99.90;;;;;;5073062;28;20195;-88
2023/01/16 10:16:01;;;;;;;4.65;0.80;;;26.30;99.90;;;;;;5078056;28;20294;-90
2023/01/16 10:18:41;;;;;;;2.55;0.70;;;26.30;99.90;;;;;;5088444;28;20248;-88
2023/01/16 10:21:33;;;;;;;2.08;0.65;;;26.20;99.90;;;;;;5085394;28;20223;-89
2023/01/16 10:24:11;;;;;;;2.08;0.60;;;26.20;99.90;;;;;;5094879;28;20713;-88
2023/01/16 10:26:53;;;;;;;2.00;0.75;;;26.20;99.90;;;;;;5075298;28;20729;-87
2023/01/16 10:29:30;;;;;;;3.75;0.85;;;26.20;99.90;;;;;;5077149;28;20241;-88
2023/01/16 10:32:05;;;;;;;2.70;0.63;;;26.10;99.90;;;;;;5078461;28;20221;-88
2023/01/16 10:34:52;;;;;;;4.55;1.00;;;26.10;99.90;;;;;;5082045;28;20318;-88
2023/01/16 10:37:27;;;;;;;2.33;0.57;;;26.10;99.90;;;;;;5074742;28;20199;-88
2023/01/16 10:40:01;;;;;;;2.80;0.88;;;26.00;99.90;;;;;;5081646;28;20203;-88
2023/01/16 10:51:08;;;;;;;3.72;0.93;;;26.00;99.90;;;;;;5070320;28;20210;-87
2023/01/16 10:53:41;;;;;;;1.88;0.80;;;26.00;99.90;;;;;;5081408;28;20310;-88
2023/01/16 10:56:14;;;;;;;5.15;0.90;;;25.90;99.90;;;;;;5082144;28;20191;-90
2023/01/16 10:58:44;;;;;;;1.98;0.52;;;26.00;99.90;;;;;;5073113;28;20208;-88
2023/01/16 11:01:18;;;;;;;2.10;0.70;;;25.90;99.90;;;;;;5074791;28;20670;-89
2023/01/16 11:03:51;;;;;;;2.03;0.65;;;25.90;99.90;;;;;;5079153;28;20230;-87
2023/01/16 11:06:24;;;;;;;3.28;0.80;;;25.90;99.90;;;;;;5078218;28;20196;-88
2023/01/16 11:09:08;;;;;;;4.25;0.90;;;25.90;99.90;;;;;;5078813;28;20260;-87
2023/01/16 11:20:21;;;;;;;4.32;0.85;;;25.80;99.90;;;;;;5089980;28;20227;-87
2023/01/16 11:22:59;;;;;;;2.53;0.80;;;25.80;99.90;;;;;;5097550;28;20210;-89
2023/01/16 11:25:37;;;;;;;3.72;0.90;;;25.80;99.90;;;;;;5085104;28;20219;-88
2023/01/16 11:28:12;;;;;;;2.78;0.80;;;25.70;99.90;;;;;;5086683;28;20187;-90
2023/01/16 11:30:47;;;;;;;4.55;0.95;;;25.80;99.90;;;;;;5084002;28;20190;-88
2023/01/16 11:33:22;;;;;;;2.13;0.63;;;25.80;99.90;;;;;;5080177;28;20217;-88
2023/01/16 11:35:58;;;;;;;1.85;0.70;;;25.80;99.90;;;;;;5077559;28;20729;-88
2023/01/16 11:38:33;;;;;;;2.47;0.60;;;25.80;99.90;;;;;;5078489;28;20661;-89
2023/01/16 11:41:08;;;;;;;5.18;1.05;;;25.70;99.90;;;;;;5080776;28;20195;-88
2023/01/16 11:46:40;;;;;;;4.05;0.65;;;25.70;99.90;;;;;;5083576;28;20203;-90
2023/01/16 11:49:28;;;;;;;3.15;0.80;;;25.70;99.90;;;;;;5081017;28;20369;-88
2023/01/16 11:52:06;;;;;;;3.47;0.80;;;25.70;99.90;;;;;;5084573;28;20195;-89
2023/01/16 11:54:42;;;;;;;2.38;0.60;;;25.70;99.90;;;;;;5079163;28;20229;-89
2023/01/16 11:57:50;;;;;;;3.10;0.80;;;25.60;99.90;;;;;;5081761;28;20286;-88
2023/01/16 12:00:55;;;;;;;3.08;0.70;;;25.60;99.90;;;;;;5078574;28;20191;-89
2023/01/16 12:04:06;;;;;;;2.50;0.95;;;25.60;99.90;;;;;;5079616;28;20717;-89
2023/01/16 12:06:51;;;;;;;4.85;1.02;;;25.50;99.90;;;;;;5005397;28;20583;-88
2023/01/16 12:09:56;;;;;;;3.13;0.95;;;25.50;99.90;;;;;;5071007;28;21056;-88
2023/01/16 12:15:30;;;;;;;4.22;0.90;;;25.50;99.90;;;;;;5074604;28;20240;-90
2023/01/16 12:18:17;;;;;;;4.18;0.73;;;25.50;99.90;;;;;;5071888;28;20199;-89
2023/01/16 12:20:56;;;;;;;2.67;0.73;;;25.50;99.90;;;;;;5086556;28;20311;-89
2023/01/16 12:23:45;;;;;;;3.20;0.73;;;25.50;99.90;;;;;;5086488;28;20641;-88
2023/01/16 12:26:23;;;;;;;2.58;0.77;;;25.50;99.90;;;;;;5074957;28;20196;-88
2023/01/16 12:29:08;;;;;;;3.17;0.90;;;25.50;99.90;;;;;;5074569;28;20447;-89
2023/01/16 12:32:08;;;;;;;3.80;1.08;;;25.50;99.90;;;;;;5076569;28;20197;-90
2023/01/16 12:35:07;;;;;;;4.85;0.90;;;25.40;99.90;;;;;;5077203;28;20226;-88
2023/01/16 12:37:55;;;;;;;3.30;0.93;;;25.40;99.90;;;;;;5075456;28;20283;-88
2023/01/16 12:40:40;;;;;;;4.65;0.80;;;25.40;99.90;;;;;;5075015;28;20205;-90
2023/01/16 12:43:23;;;;;;;3.85;0.80;;;25.40;99.90;;;;;;5074806;28;20206;-90
2023/01/16 12:45:57;;;;;;;3.15;1.00;;;25.40;99.90;;;;;;5076980;28;20642;-89
2023/01/16 12:48:48;;;;;;;3.03;0.80;;;25.30;99.90;;;;;;5074231;28;20224;-89
2023/01/16 12:51:35;;;;;;;4.13;0.82;;;25.30;99.90;;;;;;5072129;28;20214;-89
2023/01/16 12:54:31;;;;;;;4.40;1.00;;;25.30;99.90;;;;;;5077775;28;20231;-90
2023/01/16 12:57:20;;;;;;;2.72;0.90;;;25.30;99.90;;;;;;5068651;28;20307;-90
2023/01/16 12:59:55;;;;;;;3.08;1.00;;;25.30;99.90;;;;;;5077730;28;20261;-90
2023/01/16 13:02:35;;;;;;;3.88;0.80;;;25.30;99.90;;;;;;5073791;28;20237;-89
2023/01/16 13:05:12;;;;;;;3.88;0.93;;;25.30;99.90;;;;;;5077399;28;20253;-89
2023/01/16 13:07:51;;;;;;;2.92;1.00;;;25.30;99.90;;;;;;5075824;28;20670;-88
2023/01/16 13:13:24;;;;;;;5.75;1.00;;;25.30;99.90;;;;;;5072414;28;20265;-89
2023/01/16 13:16:07;;;;;;;3.17;1.00;;;25.30;99.90;;;;;;5074186;28;20238;-89
2023/01/16 13:18:42;;;;;;;2.85;0.80;;;25.30;99.90;;;;;;5082747;28;20191;-89
2023/01/16 13:21:19;;;;;;;4.55;1.00;;;25.30;99.90;;;;;;5073810;28;20255;-90
2023/01/16 13:23:57;;;;;;;4.68;1.00;;;25.20;99.90;;;;;;5093655;28;20791;-89
2023/01/16 13:26:29;;;;;;;5.53;0.90;;;25.20;99.90;;;;;;5074189;28;20212;-89
2023/01/16 13:29:08;;;;;;;2.42;0.80;;;25.10;99.90;;;;;;5083230;28;20192;-91
2023/01/16 13:31:43;;;;;;;4.70;0.90;;;25.10;99.90;;;;;;5078376;28;20270;-89
2023/01/16 13:34:20;;;;;;;2.70;0.82;;;25.10;99.90;;;;;;5083933;28;20191;-89
2023/01/16 13:37:24;;;;;;;4.00;0.90;;;25.10;99.90;;;;;;5079952;28;20334;-88
2023/01/16 13:40:26;;;;;;;3.92;0.98;;;25.00;99.90;;;;;;5076026;28;20198;-88
2023/01/16 13:45:47;;;;;;;4.97;0.90;;;25.00;99.90;;;;;;5087360;28;20667;-89
2023/01/16 13:45:55;;;;;;;2.60;0.88;;;24.90;99.90;;;;;;5081185;28;20623;-89
2023/01/16 13:48:30;;;;;;;3.63;0.90;;;24.90;99.90;;;;;;5081211;28;20620;-89
2023/01/16 13:51:03;;;;;;;4.97;0.90;;;24.80;99.90;;;;;;5080422;28;20277;-88
2023/01/16 13:53:40;;;;;;;3.88;1.00;;;24.80;99.90;;;;;;5070457;28;20284;-88
2023/01/16 13:56:16;;;;;;;3.30;0.85;;;24.90;99.90;;;;;;5082167;28;20227;-90
2023/01/16 13:58:53;;;;;;;2.45;0.80;;;24.90;99.90;;;;;;5077181;28;20214;-89
2023/01/16 14:01:37;;;;;;;3.20;0.88;;;24.90;99.90;;;;;;5072504;28;20738;-88
2023/01/16 14:04:29;;;;;;;5.32;0.98;;;24.90;99.90;;;;;;5076755;28;20592;-88
2023/01/16 14:10:20;;;;;;;3.58;0.85;;;24.80;99.90;;;;;;5080152;28;20326;-88
2023/01/16 14:13:16;;;;;;;2.65;0.95;;;24.80;99.90;;;;;;5065042;28;20200;-88
2023/01/16 14:18:45;;;;;;;2.72;0.80;;;24.80;99.90;;;;;;5084560;28;20254;-89
2023/01/16 14:21:23;;;;;;;2.95;0.90;;;24.80;99.90;;;;;;5086375;28;20180;-85
2023/01/16 14:24:01;;;;;;;2.55;0.90;;;24.80;99.90;;;;;;5090584;28;20324;-87
2023/01/16 14:26:45;;;;;;;4.97;0.98;;;24.70;99.90;;;;;;5083362;28;20307;-88
2023/01/16 14:29:23;;;;;;;1.50;0.70;;;24.70;99.90;;;;;;5061490;28;20345;-88
2023/01/16 14:32:03;;;;;;;3.13;0.98;;;24.70;99.90;;;;;;5080341;28;20732;-88
2023/01/16 14:34:44;;;;;;;3.67;1.13;;;24.70;99.90;;;;;;5077726;28;20192;-87
2023/01/16 14:37:18;;;;;;;2.35;1.00;;;24.70;99.90;;;;;;5080313;28;20361;-87
2023/01/16 14:39:54;;;;;;;3.25;0.95;;;24.70;99.90;;;;;;5077799;28;20202;-88
2023/01/16 14:57:14;;;;;;;3.70;1.27;;;24.60;99.90;;;;;;5079379;28;20282;-90
2023/01/16 14:59:53;;;;;;;5.85;1.15;;;24.60;99.90;;;;;;5087535;28;20203;-90
2023/01/16 15:02:33;;;;;;;2.97;0.70;;;24.60;99.90;;;;;;5082309;28;20290;-88